sensor_id;sensor_type;location;lat;lon;timestamp;pressure;altitude;pressure_sealevel;temperature;humidity
51239;BME280;38154;47.548;18.828;2023-11-19T00:00:35;99279.53;;;-0.61;100.00
51239;BME280;38154;47.548;18.828;2023-11-19T00:03:01;99288.72;;;-0.64;100.00
51239;BME280;38154;47.548;18.828;2023-11-19T00:05:27;99293.16;;;-0.62;100.00
51239;BME280;38154;47.548;18.828;2023-11-19T00:07:53;99292.69;;;-0.54;100.00
51239;BME280;38154;47.548;18.828;2023-11-19T00:10:19;99291.97;;;-0.52;100.00
51239;BME280;38154;47.548;18.828;2023-11-19T00:12:47;99291.31;;;-0.48;100.00
51239;BME280;38154;47.548;18.828;2023-11-19T00:15:13;99289.94;;;-0.58;100.00
51239;BME280;38154;47.548;18.828;2023-11-19T00:17:40;99287.03;;;-0.64;100.00
51239;BME280;38154;47.548;18.828;2023-11-19T00:20:14;99287.88;;;-0.65;100.00
51239;BME280;38154;47.548;18.828;2023-11-19T00:22:41;99291.38;;;-0.63;100.00
51239;BME280;38154;47.548;18.828;2023-11-19T00:25:10;99293.47;;;-0.56;100.00
51239;BME280;38154;47.548;18.828;2023-11-19T00:27:36;99297.97;;;-0.51;100.00
51239;BME280;38154;47.548;18.828;2023-11-19T00:30:04;99306.44;;;-0.52;100.00
51239;BME280;38154;47.548;18.828;2023-11-19T00:32:32;99304.44;;;-0.58;100.00
51239;BME280;38154;47.548;18.828;2023-11-19T00:34:57;99297.25;;;-0.65;100.00
51239;BME280;38154;47.548;18.828;2023-11-19T00:37:23;99290.25;;;-0.68;100.00
51239;BME280;38154;47.548;18.828;2023-11-19T00:39:49;99291.22;;;-0.66;100.00
51239;BME280;38154;47.548;18.828;2023-11-19T00:42:15;99281.22;;;-0.61;100.00
51239;BME280;38154;47.548;18.828;2023-11-19T00:44:41;99282.25;;;-0.58;100.00
51239;BME280;38154;47.548;18.828;2023-11-19T00:47:07;99282.09;;;-0.61;100.00
51239;BME280;38154;47.548;18.828;2023-11-19T00:49:33;99282.66;;;-0.66;100.00
51239;BME280;38154;47.548;18.828;2023-11-19T00:51:59;99283.13;;;-0.73;100.00
51239;BME280;38154;47.548;18.828;2023-11-19T00:54:25;99280.56;;;-0.73;100.00
51239;BME280;38154;47.548;18.828;2023-11-19T00:56:52;99282.22;;;-0.74;100.00
51239;BME280;38154;47.548;18.828;2023-11-19T00:59:18;99281.19;;;-0.78;100.00
51239;BME280;38154;47.548;18.828;2023-11-19T01:01:44;99278.38;;;-0.82;100.00
51239;BME280;38154;47.548;18.828;2023-11-19T01:04:10;99270.53;;;-0.85;100.00
51239;BME280;38154;47.548;18.828;2023-11-19T01:06:36;99262.78;;;-0.87;100.00
51239;BME280;38154;47.548;18.828;2023-11-19T01:09:02;99269.34;;;-0.92;100.00
51239;BME280;38154;47.548;18.828;2023-11-19T01:11:28;99271.63;;;-0.97;100.00
51239;BME280;38154;47.548;18.828;2023-11-19T01:13:54;99268.81;;;-1.01;100.00
51239;BME280;38154;47.548;18.828;2023-11-19T01:16:20;99272.88;;;-1.05;100.00
51239;BME280;38154;47.548;18.828;2023-11-19T01:18:47;99270.41;;;-1.03;100.00
51239;BME280;38154;47.548;18.828;2023-11-19T01:21:14;99269.59;;;-1.02;100.00
51239;BME280;38154;47.548;18.828;2023-11-19T01:23:41;99274.88;;;-0.99;100.00
51239;BME280;38154;47.548;18.828;2023-11-19T01:26:10;99276.75;;;-0.97;100.00
51239;BME280;38154;47.548;18.828;2023-11-19T01:28:36;99282.03;;;-0.94;100.00
51239;BME280;38154;47.548;18.828;2023-11-19T01:31:03;99282.03;;;-0.94;100.00
51239;BME280;38154;47.548;18.828;2023-11-19T01:33:29;99279.31;;;-0.97;100.00
51239;BME280;38154;47.548;18.828;2023-11-19T01:35:56;99277.25;;;-0.87;100.00
51239;BME280;38154;47.548;18.828;2023-11-19T01:38:24;99271.91;;;-0.76;100.00
51239;BME280;38154;47.548;18.828;2023-11-19T01:40:55;99267.91;;;-0.70;100.00
51239;BME280;38154;47.548;18.828;2023-11-19T01:43:35;99269.50;;;-0.72;100.00
51239;BME280;38154;47.548;18.828;2023-11-19T01:46:02;99259.66;;;-0.81;100.00
51239;BME280;38154;47.548;18.828;2023-11-19T01:48:32;99249.16;;;-0.86;100.00
51239;BME280;38154;47.548;18.828;2023-11-19T01:50:59;99243.09;;;-0.88;100.00
51239;BME280;38154;47.548;18.828;2023-11-19T01:53:28;99241.25;;;-0.90;100.00
51239;BME280;38154;47.548;18.828;2023-11-19T01:55:55;99233.41;;;-0.94;100.00
51239;BME280;38154;47.548;18.828;2023-11-19T01:58:22;99235.97;;;-0.94;100.00
51239;BME280;38154;47.548;18.828;2023-11-19T02:00:48;99223.00;;;-0.97;100.00
51239;BME280;38154;47.548;18.828;2023-11-19T02:03:15;99221.06;;;-1.01;100.00
51239;BME280;38154;47.548;18.828;2023-11-19T02:05:41;99220.00;;;-1.04;100.00
51239;BME280;38154;47.548;18.828;2023-11-19T02:08:08;99221.78;;;-1.03;100.00
51239;BME280;38154;47.548;18.828;2023-11-19T02:10:34;99223.31;;;-1.07;100.00
51239;BME280;38154;47.548;18.828;2023-11-19T02:13:00;99226.81;;;-1.05;100.00
51239;BME280;38154;47.548;18.828;2023-11-19T02:15:26;99220.34;;;-0.98;100.00
51239;BME280;38154;47.548;18.828;2023-11-19T02:17:52;99218.66;;;-0.98;100.00
51239;BME280;38154;47.548;18.828;2023-11-19T02:20:18;99218.97;;;-1.08;100.00
51239;BME280;38154;47.548;18.828;2023-11-19T02:22:47;99207.53;;;-1.15;100.00
51239;BME280;38154;47.548;18.828;2023-11-19T02:25:20;99198.81;;;-1.18;100.00
51239;BME280;38154;47.548;18.828;2023-11-19T02:27:53;99209.81;;;-1.19;100.00
51239;BME280;38154;47.548;18.828;2023-11-19T02:30:21;99211.34;;;-1.23;100.00
51239;BME280;38154;47.548;18.828;2023-11-19T02:32:53;99208.87;;;-1.21;100.00
51239;BME280;38154;47.548;18.828;2023-11-19T02:35:19;99212.25;;;-1.22;100.00
51239;BME280;38154;47.548;18.828;2023-11-19T02:37:47;99207.38;;;-1.33;100.00
51239;BME280;38154;47.548;18.828;2023-11-19T02:40:13;99197.06;;;-1.34;100.00
51239;BME280;38154;47.548;18.828;2023-11-19T02:42:39;99204.31;;;-1.27;100.00
51239;BME280;38154;47.548;18.828;2023-11-19T02:45:06;99200.16;;;-1.25;100.00
51239;BME280;38154;47.548;18.828;2023-11-19T02:47:33;99192.37;;;-1.26;100.00
51239;BME280;38154;47.548;18.828;2023-11-19T02:49:59;99193.16;;;-1.27;100.00
51239;BME280;38154;47.548;18.828;2023-11-19T02:52:25;99187.09;;;-1.29;100.00
51239;BME280;38154;47.548;18.828;2023-11-19T02:54:51;99189.75;;;-1.28;100.00
51239;BME280;38154;47.548;18.828;2023-11-19T02:57:18;99190.59;;;-1.27;100.00
51239;BME280;38154;47.548;18.828;2023-11-19T02:59:45;99184.44;;;-1.31;100.00
51239;BME280;38154;47.548;18.828;2023-11-19T03:02:10;99179.25;;;-1.33;100.00
51239;BME280;38154;47.548;18.828;2023-11-19T03:04:41;99175.44;;;-1.24;100.00
51239;BME280;38154;47.548;18.828;2023-11-19T03:07:09;99172.88;;;-1.24;100.00
51239;BME280;38154;47.548;18.828;2023-11-19T03:09:35;99166.88;;;-1.25;100.00
51239;BME280;38154;47.548;18.828;2023-11-19T03:12:02;99172.97;;;-1.23;100.00
51239;BME280;38154;47.548;18.828;2023-11-19T03:14:28;99178.59;;;-1.14;100.00
51239;BME280;38154;47.548;18.828;2023-11-19T03:16:53;99169.56;;;-1.07;100.00
51239;BME280;38154;47.548;18.828;2023-11-19T03:19:19;99166.28;;;-1.04;100.00
51239;BME280;38154;47.548;18.828;2023-11-19T03:21:45;99177.06;;;-1.10;100.00
51239;BME280;38154;47.548;18.828;2023-11-19T03:24:14;99174.25;;;-1.15;100.00
51239;BME280;38154;47.548;18.828;2023-11-19T03:26:41;99169.69;;;-1.20;100.00
51239;BME280;38154;47.548;18.828;2023-11-19T03:29:08;99166.62;;;-1.29;100.00
51239;BME280;38154;47.548;18.828;2023-11-19T03:31:34;99171.47;;;-1.34;100.00
51239;BME280;38154;47.548;18.828;2023-11-19T03:34:00;99178.28;;;-1.35;100.00
51239;BME280;38154;47.548;18.828;2023-11-19T03:36:31;99175.56;;;-1.38;100.00
51239;BME280;38154;47.548;18.828;2023-11-19T03:38:58;99155.09;;;-1.38;100.00
51239;BME280;38154;47.548;18.828;2023-11-19T03:41:24;99149.97;;;-1.38;100.00
51239;BME280;38154;47.548;18.828;2023-11-19T03:43:50;99145.69;;;-1.39;100.00
51239;BME280;38154;47.548;18.828;2023-11-19T03:46:20;99139.06;;;-1.35;100.00
51239;BME280;38154;47.548;18.828;2023-11-19T03:48:47;99134.19;;;-1.31;100.00
51239;BME280;38154;47.548;18.828;2023-11-19T03:51:13;99135.16;;;-1.28;100.00
51239;BME280;38154;47.548;18.828;2023-11-19T03:53:44;99131.72;;;-1.29;100.00
51239;BME280;38154;47.548;18.828;2023-11-19T03:56:11;99124.78;;;-1.15;100.00
51239;BME280;38154;47.548;18.828;2023-11-19T03:58:38;99129.91;;;-0.99;100.00
51239;BME280;38154;47.548;18.828;2023-11-19T04:01:04;99120.28;;;-0.86;100.00
51239;BME280;38154;47.548;18.828;2023-11-19T04:03:30;99112.94;;;-0.80;100.00
51239;BME280;38154;47.548;18.828;2023-11-19T04:05:56;99104.00;;;-0.88;100.00
51239;BME280;38154;47.548;18.828;2023-11-19T04:08:22;99100.84;;;-0.83;100.00
51239;BME280;38154;47.548;18.828;2023-11-19T04:10:48;99096.84;;;-0.94;100.00
51239;BME280;38154;47.548;18.828;2023-11-19T04:13:14;99094.53;;;-1.06;100.00
51239;BME280;38154;47.548;18.828;2023-11-19T04:15:40;99093.19;;;-1.16;100.00
51239;BME280;38154;47.548;18.828;2023-11-19T04:18:06;99090.06;;;-1.26;100.00
51239;BME280;38154;47.548;18.828;2023-11-19T04:20:32;99094.91;;;-1.31;100.00
51239;BME280;38154;47.548;18.828;2023-11-19T04:22:58;99086.03;;;-1.38;100.00
51239;BME280;38154;47.548;18.828;2023-11-19T04:25:26;99081.31;;;-1.46;100.00
51239;BME280;38154;47.548;18.828;2023-11-19T04:27:52;99083.41;;;-1.56;100.00
51239;BME280;38154;47.548;18.828;2023-11-19T04:30:18;99081.28;;;-1.63;100.00
51239;BME280;38154;47.548;18.828;2023-11-19T04:32:44;99086.31;;;-1.64;100.00
51239;BME280;38154;47.548;18.828;2023-11-19T04:35:10;99080.31;;;-1.65;100.00
51239;BME280;38154;47.548;18.828;2023-11-19T04:37:37;99076.91;;;-1.65;100.00
51239;BME280;38154;47.548;18.828;2023-11-19T04:40:03;99087.22;;;-1.64;100.00
51239;BME280;38154;47.548;18.828;2023-11-19T04:42:29;99096.69;;;-1.61;100.00
51239;BME280;38154;47.548;18.828;2023-11-19T04:44:55;99101.81;;;-1.61;100.00
51239;BME280;38154;47.548;18.828;2023-11-19T04:47:21;99108.06;;;-1.56;100.00
51239;BME280;38154;47.548;18.828;2023-11-19T04:49:47;99113.53;;;-1.50;100.00
51239;BME280;38154;47.548;18.828;2023-11-19T04:52:13;99120.47;;;-1.47;100.00
51239;BME280;38154;47.548;18.828;2023-11-19T04:54:42;99120.81;;;-1.41;100.00
51239;BME280;38154;47.548;18.828;2023-11-19T04:57:11;99123.69;;;-1.35;100.00
51239;BME280;38154;47.548;18.828;2023-11-19T04:59:37;99113.72;;;-1.31;100.00
51239;BME280;38154;47.548;18.828;2023-11-19T05:02:03;99095.09;;;-1.28;100.00
51239;BME280;38154;47.548;18.828;2023-11-19T05:04:30;99093.72;;;-1.21;100.00
51239;BME280;38154;47.548;18.828;2023-11-19T05:06:56;99092.22;;;-1.18;100.00
51239;BME280;38154;47.548;18.828;2023-11-19T05:09:22;99087.44;;;-1.12;100.00
51239;BME280;38154;47.548;18.828;2023-11-19T05:11:47;99090.31;;;-1.05;100.00
51239;BME280;38154;47.548;18.828;2023-11-19T05:14:14;99094.78;;;-1.01;100.00
51239;BME280;38154;47.548;18.828;2023-11-19T05:16:41;99108.53;;;-0.99;100.00
51239;BME280;38154;47.548;18.828;2023-11-19T05:19:07;99099.28;;;-0.97;100.00
51239;BME280;38154;47.548;18.828;2023-11-19T05:21:33;99089.03;;;-0.97;100.00
51239;BME280;38154;47.548;18.828;2023-11-19T05:24:00;99077.97;;;-0.96;100.00
51239;BME280;38154;47.548;18.828;2023-11-19T05:26:26;99079.50;;;-0.83;100.00
51239;BME280;38154;47.548;18.828;2023-11-19T05:28:51;99091.19;;;-0.72;100.00
51239;BME280;38154;47.548;18.828;2023-11-19T05:31:18;99083.88;;;-0.64;100.00
51239;BME280;38154;47.548;18.828;2023-11-19T05:33:44;99083.84;;;-0.48;100.00
51239;BME280;38154;47.548;18.828;2023-11-19T05:36:11;99081.13;;;-0.51;100.00
51239;BME280;38154;47.548;18.828;2023-11-19T05:38:38;99085.13;;;-0.56;100.00
51239;BME280;38154;47.548;18.828;2023-11-19T05:41:04;99081.88;;;-0.53;100.00
51239;BME280;38154;47.548;18.828;2023-11-19T05:43:31;99077.38;;;-0.58;100.00
51239;BME280;38154;47.548;18.828;2023-11-19T05:45:57;99078.75;;;-0.64;100.00
51239;BME280;38154;47.548;18.828;2023-11-19T05:48:25;99083.69;;;-0.67;100.00
51239;BME280;38154;47.548;18.828;2023-11-19T05:50:51;99090.75;;;-0.63;100.00
51239;BME280;38154;47.548;18.828;2023-11-19T05:53:17;99088.19;;;-0.63;100.00
51239;BME280;38154;47.548;18.828;2023-11-19T05:55:43;99082.50;;;-0.58;100.00
51239;BME280;38154;47.548;18.828;2023-11-19T05:58:23;99075.66;;;-0.41;100.00
51239;BME280;38154;47.548;18.828;2023-11-19T06:00:49;99080.69;;;-0.42;100.00
51239;BME280;38154;47.548;18.828;2023-11-19T06:03:16;99089.28;;;-0.42;100.00
51239;BME280;38154;47.548;18.828;2023-11-19T06:05:44;99088.25;;;-0.27;100.00
51239;BME280;38154;47.548;18.828;2023-11-19T06:08:11;99082.69;;;-0.19;100.00
51239;BME280;38154;47.548;18.828;2023-11-19T06:10:39;99075.78;;;-0.03;100.00
51239;BME280;38154;47.548;18.828;2023-11-19T06:13:06;99072.31;;;0.14;100.00
51239;BME280;38154;47.548;18.828;2023-11-19T06:15:33;99071.59;;;0.17;100.00
51239;BME280;38154;47.548;18.828;2023-11-19T06:17:59;99073.41;;;0.20;100.00
51239;BME280;38154;47.548;18.828;2023-11-19T06:20:27;99081.25;;;0.23;100.00
51239;BME280;38154;47.548;18.828;2023-11-19T06:22:56;99071.59;;;0.17;100.00
51239;BME280;38154;47.548;18.828;2023-11-19T06:25:22;99059.41;;;0.13;100.00
51239;BME280;38154;47.548;18.828;2023-11-19T06:27:50;99052.66;;;0.15;100.00
51239;BME280;38154;47.548;18.828;2023-11-19T06:30:16;99049.31;;;0.16;100.00
51239;BME280;38154;47.548;18.828;2023-11-19T06:32:43;99050.63;;;0.26;100.00
51239;BME280;38154;47.548;18.828;2023-11-19T06:35:09;99064.63;;;0.32;100.00
51239;BME280;38154;47.548;18.828;2023-11-19T06:37:38;99060.50;;;0.36;100.00
51239;BME280;38154;47.548;18.828;2023-11-19T06:40:04;99058.94;;;0.40;100.00
51239;BME280;38154;47.548;18.828;2023-11-19T06:42:31;99053.16;;;0.44;100.00
51239;BME280;38154;47.548;18.828;2023-11-19T06:44:57;99058.72;;;0.53;100.00
51239;BME280;38154;47.548;18.828;2023-11-19T06:47:26;99053.25;;;0.65;100.00
51239;BME280;38154;47.548;18.828;2023-11-19T06:49:54;99050.34;;;0.77;100.00
51239;BME280;38154;47.548;18.828;2023-11-19T06:52:20;99035.63;;;0.92;100.00
51239;BME280;38154;47.548;18.828;2023-11-19T06:54:46;99035.75;;;0.95;100.00
51239;BME280;38154;47.548;18.828;2023-11-19T06:57:13;99028.34;;;1.01;100.00
51239;BME280;38154;47.548;18.828;2023-11-19T06:59:39;99029.47;;;1.08;100.00
51239;BME280;38154;47.548;18.828;2023-11-19T07:02:05;99031.88;;;1.24;100.00
51239;BME280;38154;47.548;18.828;2023-11-19T07:04:32;99036.53;;;1.33;100.00
51239;BME280;38154;47.548;18.828;2023-11-19T07:06:59;99045.50;;;1.43;100.00
51239;BME280;38154;47.548;18.828;2023-11-19T07:09:26;99048.66;;;1.57;100.00
51239;BME280;38154;47.548;18.828;2023-11-19T07:11:51;99037.78;;;1.64;100.00
51239;BME280;38154;47.548;18.828;2023-11-19T07:14:18;99041.13;;;1.61;100.00
51239;BME280;38154;47.548;18.828;2023-11-19T07:16:45;99032.53;;;1.61;100.00
51239;BME280;38154;47.548;18.828;2023-11-19T07:19:12;99030.72;;;1.58;100.00
51239;BME280;38154;47.548;18.828;2023-11-19T07:21:41;99037.56;;;1.58;100.00
51239;BME280;38154;47.548;18.828;2023-11-19T07:24:10;99046.06;;;1.57;100.00
51239;BME280;38154;47.548;18.828;2023-11-19T07:26:46;99040.28;;;1.62;100.00
51239;BME280;38154;47.548;18.828;2023-11-19T07:29:15;99050.91;;;1.70;100.00
51239;BME280;38154;47.548;18.828;2023-11-19T07:31:43;99039.19;;;1.77;100.00
51239;BME280;38154;47.548;18.828;2023-11-19T07:34:10;99039.38;;;1.81;100.00
51239;BME280;38154;47.548;18.828;2023-11-19T07:36:37;99032.47;;;1.80;100.00
51239;BME280;38154;47.548;18.828;2023-11-19T07:39:04;99030.88;;;1.84;100.00
51239;BME280;38154;47.548;18.828;2023-11-19T07:41:33;99041.44;;;1.90;100.00
51239;BME280;38154;47.548;18.828;2023-11-19T07:43:59;99044.34;;;1.99;100.00
51239;BME280;38154;47.548;18.828;2023-11-19T07:46:25;99052.38;;;2.07;100.00
51239;BME280;38154;47.548;18.828;2023-11-19T07:48:52;99055.47;;;2.21;100.00
51239;BME280;38154;47.548;18.828;2023-11-19T07:51:18;99051.44;;;2.28;100.00
51239;BME280;38154;47.548;18.828;2023-11-19T07:53:44;99060.47;;;2.39;100.00
51239;BME280;38154;47.548;18.828;2023-11-19T07:56:10;99052.88;;;2.42;100.00
51239;BME280;38154;47.548;18.828;2023-11-19T07:58:36;99045.03;;;2.39;100.00
51239;BME280;38154;47.548;18.828;2023-11-19T08:01:05;99045.63;;;2.32;100.00
51239;BME280;38154;47.548;18.828;2023-11-19T08:03:31;99043.50;;;2.44;100.00
51239;BME280;38154;47.548;18.828;2023-11-19T08:06:00;99041.28;;;2.53;100.00
51239;BME280;38154;47.548;18.828;2023-11-19T08:08:27;99023.59;;;2.63;100.00
51239;BME280;38154;47.548;18.828;2023-11-19T08:10:55;99021.38;;;2.72;100.00
51239;BME280;38154;47.548;18.828;2023-11-19T08:13:23;99013.72;;;2.73;100.00
51239;BME280;38154;47.548;18.828;2023-11-19T08:15:50;99000.91;;;2.75;100.00
51239;BME280;38154;47.548;18.828;2023-11-19T08:18:15;98993.19;;;2.76;100.00
51239;BME280;38154;47.548;18.828;2023-11-19T08:20:41;98973.16;;;2.68;100.00
51239;BME280;38154;47.548;18.828;2023-11-19T08:23:09;98960.41;;;2.71;100.00
51239;BME280;38154;47.548;18.828;2023-11-19T08:25:35;98966.31;;;2.68;100.00
51239;BME280;38154;47.548;18.828;2023-11-19T08:28:01;98985.59;;;2.55;100.00
51239;BME280;38154;47.548;18.828;2023-11-19T08:30:29;99010.72;;;2.63;100.00
51239;BME280;38154;47.548;18.828;2023-11-19T08:32:55;99017.47;;;2.59;100.00
51239;BME280;38154;47.548;18.828;2023-11-19T08:35:21;99004.03;;;2.68;100.00
51239;BME280;38154;47.548;18.828;2023-11-19T08:37:47;98981.97;;;2.74;100.00
51239;BME280;38154;47.548;18.828;2023-11-19T08:40:13;98986.19;;;2.72;100.00
51239;BME280;38154;47.548;18.828;2023-11-19T08:42:42;98988.72;;;2.71;100.00
51239;BME280;38154;47.548;18.828;2023-11-19T08:45:08;98961.44;;;2.76;100.00
51239;BME280;38154;47.548;18.828;2023-11-19T08:47:37;98966.53;;;2.74;100.00
51239;BME280;38154;47.548;18.828;2023-11-19T08:50:04;99008.00;;;2.82;100.00
51239;BME280;38154;47.548;18.828;2023-11-19T08:52:30;98982.16;;;2.79;100.00
51239;BME280;38154;47.548;18.828;2023-11-19T08:54:56;98968.88;;;2.92;100.00
51239;BME280;38154;47.548;18.828;2023-11-19T08:57:22;98974.44;;;3.05;100.00
51239;BME280;38154;47.548;18.828;2023-11-19T08:59:48;98982.06;;;3.02;100.00
51239;BME280;38154;47.548;18.828;2023-11-19T09:02:14;98988.66;;;2.93;100.00
51239;BME280;38154;47.548;18.828;2023-11-19T09:04:41;98991.31;;;2.96;100.00
51239;BME280;38154;47.548;18.828;2023-11-19T09:07:06;99000.19;;;3.05;100.00
51239;BME280;38154;47.548;18.828;2023-11-19T09:09:35;98999.56;;;3.10;100.00
51239;BME280;38154;47.548;18.828;2023-11-19T09:12:02;99002.09;;;3.09;100.00
51239;BME280;38154;47.548;18.828;2023-11-19T09:14:30;98997.31;;;2.95;100.00
51239;BME280;38154;47.548;18.828;2023-11-19T09:16:56;98995.37;;;2.88;100.00
51239;BME280;38154;47.548;18.828;2023-11-19T09:19:22;99003.84;;;2.86;100.00
51239;BME280;38154;47.548;18.828;2023-11-19T09:21:48;98995.78;;;2.76;100.00
51239;BME280;38154;47.548;18.828;2023-11-19T09:24:15;99000.91;;;2.75;100.00
51239;BME280;38154;47.548;18.828;2023-11-19T09:26:41;99000.13;;;2.77;100.00
51239;BME280;38154;47.548;18.828;2023-11-19T09:29:07;99006.56;;;2.66;100.00
51239;BME280;38154;47.548;18.828;2023-11-19T09:31:33;98999.94;;;2.73;100.00
51239;BME280;38154;47.548;18.828;2023-11-19T09:34:00;98993.06;;;2.72;100.00
51239;BME280;38154;47.548;18.828;2023-11-19T09:36:26;98993.06;;;2.72;100.00
51239;BME280;38154;47.548;18.828;2023-11-19T09:38:52;98972.81;;;2.83;100.00
51239;BME280;38154;47.548;18.828;2023-11-19T09:41:19;98965.97;;;2.83;100.00
51239;BME280;38154;47.548;18.828;2023-11-19T09:43:45;98960.94;;;2.86;100.00
51239;BME280;38154;47.548;18.828;2023-11-19T09:46:13;98965.28;;;2.87;100.00
51239;BME280;38154;47.548;18.828;2023-11-19T09:48:41;98964.25;;;3.08;100.00
51239;BME280;38154;47.548;18.828;2023-11-19T09:51:11;98963.50;;;3.10;100.00
51239;BME280;38154;47.548;18.828;2023-11-19T09:53:37;98963.53;;;3.12;100.00
51239;BME280;38154;47.548;18.828;2023-11-19T09:56:04;98955.28;;;2.96;100.00
51239;BME280;38154;47.548;18.828;2023-11-19T09:58:33;98956.34;;;2.77;100.00
51239;BME280;38154;47.548;18.828;2023-11-19T10:01:00;98949.34;;;2.73;100.00
51239;BME280;38154;47.548;18.828;2023-11-19T10:03:34;98945.22;;;2.78;100.00
51239;BME280;38154;47.548;18.828;2023-11-19T10:06:03;98940.13;;;2.80;100.00
51239;BME280;38154;47.548;18.828;2023-11-19T10:08:30;98931.63;;;2.83;100.00
51239;BME280;38154;47.548;18.828;2023-11-19T10:10:56;98928.28;;;2.85;100.00
51239;BME280;38154;47.548;18.828;2023-11-19T10:13:26;98930.03;;;2.86;100.00
51239;BME280;38154;47.548;18.828;2023-11-19T10:15:52;98933.75;;;2.94;100.00
51239;BME280;38154;47.548;18.828;2023-11-19T10:18:18;98923.09;;;3.09;100.00
51239;BME280;38154;47.548;18.828;2023-11-19T10:20:49;98921.50;;;2.87;100.00
51239;BME280;38154;47.548;18.828;2023-11-19T10:23:15;98911.41;;;2.93;100.00
51239;BME280;38154;47.548;18.828;2023-11-19T10:25:40;98913.31;;;2.99;100.00
51239;BME280;38154;47.548;18.828;2023-11-19T10:28:06;98913.56;;;3.07;100.00
51239;BME280;38154;47.548;18.828;2023-11-19T10:30:33;98919.59;;;3.07;100.00
51239;BME280;38154;47.548;18.828;2023-11-19T10:35:37;98918.91;;;3.13;100.00
51239;BME280;38154;47.548;18.828;2023-11-19T10:38:16;98901.41;;;3.30;100.00
51239;BME280;38154;47.548;18.828;2023-11-19T10:40:42;98900.69;;;3.34;100.00
51239;BME280;38154;47.548;18.828;2023-11-19T10:43:08;98899.47;;;3.23;100.00
51239;BME280;38154;47.548;18.828;2023-11-19T10:45:38;98904.88;;;3.30;100.00
51239;BME280;38154;47.548;18.828;2023-11-19T10:48:05;98898.88;;;3.31;100.00
51239;BME280;38154;47.548;18.828;2023-11-19T10:50:37;98902.09;;;3.24;100.00
51239;BME280;38154;47.548;18.828;2023-11-19T10:53:04;98893.56;;;3.25;100.00
51239;BME280;38154;47.548;18.828;2023-11-19T10:55:31;98882.34;;;3.25;100.00
51239;BME280;38154;47.548;18.828;2023-11-19T10:57:59;98879.87;;;3.28;100.00
51239;BME280;38154;47.548;18.828;2023-11-19T11:00:29;98871.28;;;3.27;100.00
51239;BME280;38154;47.548;18.828;2023-11-19T11:03:00;98868.66;;;3.26;100.00
51239;BME280;38154;47.548;18.828;2023-11-19T11:05:27;98857.84;;;3.38;100.00
51239;BME280;38154;47.548;18.828;2023-11-19T11:07:55;98854.84;;;3.51;100.00
51239;BME280;38154;47.548;18.828;2023-11-19T11:10:26;98830.25;;;3.62;100.00
51239;BME280;38154;47.548;18.828;2023-11-19T11:12:52;98826.97;;;3.68;100.00
51239;BME280;38154;47.548;18.828;2023-11-19T11:15:27;98824.63;;;3.76;100.00
51239;BME280;38154;47.548;18.828;2023-11-19T11:18:01;98824.03;;;3.84;100.00
51239;BME280;38154;47.548;18.828;2023-11-19T11:20:29;98833.66;;;3.92;100.00
51239;BME280;38154;47.548;18.828;2023-11-19T11:26:00;98828.13;;;3.78;100.00
51239;BME280;38154;47.548;18.828;2023-11-19T11:28:43;98843.56;;;3.76;100.00
51239;BME280;38154;47.548;18.828;2023-11-19T11:34:07;98831.22;;;3.66;100.00
51239;BME280;38154;47.548;18.828;2023-11-19T11:37:09;98824.19;;;3.62;100.00
51239;BME280;38154;47.548;18.828;2023-11-19T11:39:36;98814.78;;;3.62;100.00
51239;BME280;38154;47.548;18.828;2023-11-19T11:45:05;98807.91;;;3.63;100.00
51239;BME280;38154;47.548;18.828;2023-11-19T11:50:17;98796.25;;;3.76;100.00
51239;BME280;38154;47.548;18.828;2023-11-19T11:57:50;98795.50;;;3.80;99.95
51239;BME280;38154;47.548;18.828;2023-11-19T12:03:05;98793.84;;;3.82;100.00
51239;BME280;38154;47.548;18.828;2023-11-19T12:05:41;98791.91;;;3.75;100.00
51239;BME280;38154;47.548;18.828;2023-11-19T12:08:10;98780.84;;;3.79;100.00
51239;BME280;38154;47.548;18.828;2023-11-19T12:10:49;98773.13;;;3.79;100.00
51239;BME280;38154;47.548;18.828;2023-11-19T12:13:17;98761.56;;;3.64;100.00
51239;BME280;38154;47.548;18.828;2023-11-19T12:18:26;98766.94;;;3.74;100.00
51239;BME280;38154;47.548;18.828;2023-11-19T12:20:53;98766.94;;;3.74;100.00
51239;BME280;38154;47.548;18.828;2023-11-19T12:23:19;98753.00;;;3.67;100.00
51239;BME280;38154;47.548;18.828;2023-11-19T12:25:45;98748.56;;;3.61;100.00
51239;BME280;38154;47.548;18.828;2023-11-19T12:28:12;98746.59;;;3.52;100.00
51239;BME280;38154;47.548;18.828;2023-11-19T12:30:38;98733.56;;;3.48;100.00
51239;BME280;38154;47.548;18.828;2023-11-19T12:33:08;98734.25;;;3.41;100.00
51239;BME280;38154;47.548;18.828;2023-11-19T12:35:44;98718.59;;;3.34;100.00
51239;BME280;38154;47.548;18.828;2023-11-19T12:38:21;98719.50;;;3.37;100.00
51239;BME280;38154;47.548;18.828;2023-11-19T12:40:47;98714.03;;;3.26;100.00
51239;BME280;38154;47.548;18.828;2023-11-19T12:43:22;98710.66;;;3.27;100.00
51239;BME280;38154;47.548;18.828;2023-11-19T12:45:48;98707.94;;;3.22;100.00
51239;BME280;38154;47.548;18.828;2023-11-19T12:48:14;98698.63;;;3.27;100.00
51239;BME280;38154;47.548;18.828;2023-11-19T12:50:58;98699.44;;;3.26;100.00
51239;BME280;38154;47.548;18.828;2023-11-19T12:53:27;98700.31;;;3.25;100.00
51239;BME280;38154;47.548;18.828;2023-11-19T12:55:54;98702.88;;;3.25;100.00
51239;BME280;38154;47.548;18.828;2023-11-19T12:58:31;98699.25;;;3.19;100.00
51239;BME280;38154;47.548;18.828;2023-11-19T13:01:02;98706.19;;;3.21;100.00
51239;BME280;38154;47.548;18.828;2023-11-19T13:03:35;98713.22;;;3.27;100.00
51239;BME280;38154;47.548;18.828;2023-11-19T13:06:12;98720.97;;;3.28;100.00
51239;BME280;38154;47.548;18.828;2023-11-19T13:08:40;98714.09;;;3.27;100.00
51239;BME280;38154;47.548;18.828;2023-11-19T13:11:07;98710.66;;;3.28;100.00